createdAt,value
2018-09-29T00:02:20.802Z,77.00
2018-09-29T00:04:49.419Z,76.30
2018-09-29T00:07:18.045Z,76.90
2018-09-29T00:09:46.664Z,76.80
2018-09-29T00:12:15.255Z,76.70
2018-09-29T00:14:44.136Z,77.00
2018-09-29T00:17:13.301Z,76.30
2018-09-29T00:19:41.874Z,75.90
2018-09-29T00:22:10.465Z,75.80
2018-09-29T00:24:39.024Z,76.10
2018-09-29T00:27:07.625Z,76.00
2018-09-29T00:29:36.190Z,75.90
2018-09-29T00:32:05.038Z,75.80
2018-09-29T00:34:33.595Z,75.70
2018-09-29T00:37:02.238Z,76.40
2018-09-29T00:39:30.785Z,75.50
2018-09-29T00:41:59.413Z,75.80
2018-09-29T00:44:27.985Z,75.30
2018-09-29T00:46:56.572Z,75.40
2018-09-29T00:49:25.135Z,75.30
2018-09-29T00:51:53.726Z,74.60
2018-09-29T00:54:22.296Z,75.10
2018-09-29T00:56:50.892Z,74.80
2018-09-29T00:59:19.476Z,76.30
2018-09-29T01:01:48.078Z,75.30
2018-09-29T01:04:16.654Z,75.30
2018-09-29T01:06:45.244Z,75.30
2018-09-29T01:09:13.810Z,75.00
2018-09-29T01:11:42.420Z,75.00
2018-09-29T01:14:11.020Z,76.00
2018-09-29T01:16:39.625Z,75.60
2018-09-29T01:19:08.251Z,75.30
2018-09-29T01:21:36.836Z,75.10
2018-09-29T01:24:05.462Z,74.80
2018-09-29T01:26:34.084Z,75.40
2018-09-29T01:29:02.644Z,75.00
2018-09-29T01:31:31.259Z,75.40
2018-09-29T01:33:59.829Z,75.00
2018-09-29T01:36:28.426Z,75.40
2018-09-29T01:38:57.112Z,75.30
2018-09-29T01:41:25.706Z,75.50
2018-09-29T01:43:54.297Z,75.70
2018-09-29T01:46:22.880Z,75.90
2018-09-29T01:48:51.476Z,75.40
2018-09-29T01:51:20.384Z,76.00
2018-09-29T01:53:48.990Z,75.70
2018-09-29T01:56:17.573Z,75.60
2018-09-29T01:58:46.174Z,76.20
2018-09-29T02:01:15.001Z,76.90
2018-09-29T02:03:43.604Z,75.90
2018-09-29T02:06:12.180Z,76.40
2018-09-29T02:08:40.808Z,76.20
2018-09-29T02:11:09.373Z,75.40
2018-09-29T02:13:37.970Z,76.40
2018-09-29T02:16:06.642Z,76.60
2018-09-29T02:18:35.282Z,76.00
2018-09-29T02:21:03.896Z,76.50
2018-09-29T02:23:32.509Z,76.80
2018-09-29T02:26:01.083Z,76.70
2018-09-29T02:28:29.703Z,76.50
2018-09-29T02:30:58.353Z,75.80
2018-09-29T02:33:27.154Z,76.40
2018-09-29T02:35:55.731Z,76.80
2018-09-29T02:38:24.328Z,76.90
2018-09-29T02:40:52.924Z,76.10
2018-09-29T02:43:21.525Z,76.30
2018-09-29T02:45:51.168Z,76.90
2018-09-29T02:48:19.801Z,76.70
2018-09-29T02:50:48.579Z,76.10
2018-09-29T02:53:17.178Z,75.40
2018-09-29T02:55:45.756Z,74.90
2018-09-29T02:58:14.362Z,75.60
2018-09-29T03:00:43.672Z,74.30
2018-09-29T03:03:12.272Z,74.70
2018-09-29T03:05:40.872Z,74.20
2018-09-29T03:08:09.477Z,74.60
2018-09-29T03:10:38.401Z,73.70
2018-09-29T03:13:07.011Z,73.80
2018-09-29T03:15:35.576Z,73.50
2018-09-29T03:18:04.220Z,74.00
2018-09-29T03:20:32.806Z,72.90
2018-09-29T03:23:01.711Z,73.10
2018-09-29T03:25:30.333Z,73.90
2018-09-29T03:27:58.897Z,73.80
2018-09-29T03:30:27.498Z,74.30
2018-09-29T03:32:56.101Z,74.90
2018-09-29T03:35:24.697Z,74.80
2018-09-29T03:37:53.292Z,74.10
2018-09-29T03:40:21.925Z,74.30
2018-09-29T03:42:50.509Z,74.30
2018-09-29T03:45:19.098Z,74.20
2018-09-29T03:47:47.664Z,73.70
2018-09-29T03:50:16.270Z,73.10
2018-09-29T03:52:45.816Z,74.80
2018-09-29T03:55:14.444Z,74.00
2018-09-29T03:57:43.013Z,75.30
2018-09-29T04:00:11.609Z,74.60
2018-09-29T04:02:40.504Z,75.30
2018-09-29T04:05:09.104Z,74.30
2018-09-29T04:07:37.671Z,75.40
2018-09-29T04:10:06.345Z,74.60
2018-09-29T04:12:34.915Z,74.30
2018-09-29T04:15:03.541Z,73.70
2018-09-29T04:17:32.109Z,74.00
2018-09-29T04:20:00.702Z,73.10
2018-09-29T04:22:29.729Z,73.30
2018-09-29T04:24:58.328Z,71.90
2018-09-29T04:27:26.897Z,72.80
2018-09-29T04:29:55.824Z,73.30
2018-09-29T04:32:24.393Z,73.10
2018-09-29T04:34:52.990Z,71.50
2018-09-29T04:37:21.702Z,70.90
2018-09-29T04:39:50.314Z,71.00
2018-09-29T04:42:18.939Z,71.10
2018-09-29T04:44:47.530Z,71.90
2018-09-29T04:47:16.100Z,71.20
2018-09-29T04:49:44.684Z,70.90
2018-09-29T04:52:13.244Z,70.30
2018-09-29T04:54:41.856Z,70.90
2018-09-29T04:57:10.430Z,70.20
2018-09-29T04:59:38.998Z,68.70
2018-09-29T05:02:07.610Z,69.00
2018-09-29T05:04:36.192Z,68.90
2018-09-29T05:07:04.794Z,69.60
2018-09-29T05:09:33.392Z,70.00
2018-09-29T05:12:02.049Z,68.80
2018-09-29T05:14:30.628Z,69.70
2018-09-29T05:16:59.224Z,68.20
2018-09-29T05:19:27.809Z,68.30
2018-09-29T05:21:56.413Z,69.10
2018-09-29T05:24:24.973Z,68.60
2018-09-29T05:26:53.574Z,68.40
2018-09-29T05:29:22.149Z,69.20
2018-09-29T05:31:50.845Z,69.00
2018-09-29T05:34:19.420Z,68.50
2018-09-29T05:36:48.013Z,68.40
2018-09-29T05:39:16.607Z,68.00
2018-09-29T05:41:45.224Z,68.00
2018-09-29T05:44:13.809Z,67.90
2018-09-29T05:46:42.412Z,68.90
2018-09-29T05:49:10.984Z,67.90
2018-09-29T05:51:39.581Z,67.50
2018-09-29T05:54:08.132Z,67.60
2018-09-29T05:56:36.722Z,68.00
2018-09-29T05:59:05.356Z,68.10
2018-09-29T06:01:33.954Z,68.10
2018-09-29T06:04:02.526Z,67.70
2018-09-29T06:06:31.982Z,69.60
2018-09-29T06:09:01.543Z,68.40
2018-09-29T06:11:30.140Z,69.00
2018-09-29T06:13:58.970Z,68.40
2018-09-29T06:16:27.581Z,69.90
2018-09-29T06:18:56.162Z,69.20
2018-09-29T06:21:24.781Z,67.90
2018-09-29T06:23:53.365Z,68.80
2018-09-29T06:26:22.137Z,68.00
2018-09-29T06:28:50.710Z,68.10
2018-09-29T06:31:19.314Z,68.00
2018-09-29T06:33:47.877Z,68.30
2018-09-29T06:36:16.477Z,67.70
2018-09-29T06:38:45.048Z,68.60
2018-09-29T06:41:13.694Z,67.90
2018-09-29T06:43:42.270Z,66.70
2018-09-29T06:46:10.842Z,66.40
2018-09-29T06:48:39.444Z,66.20
2018-09-29T06:51:08.440Z,64.80
2018-09-29T06:53:37.677Z,63.30
2018-09-29T06:56:06.344Z,62.30
2018-09-29T06:58:34.948Z,62.10
2018-09-29T07:01:03.549Z,61.90
2018-09-29T07:03:32.149Z,61.70
2018-09-29T07:06:01.308Z,59.90
2018-09-29T07:08:29.905Z,60.40
2018-09-29T07:10:58.471Z,60.00
2018-09-29T07:13:27.258Z,59.20
2018-09-29T07:15:55.833Z,58.50
2018-09-29T07:18:24.461Z,58.40
2018-09-29T07:20:53.029Z,57.60
2018-09-29T07:23:21.640Z,56.90
2018-09-29T07:25:50.230Z,56.40
2018-09-29T07:28:18.840Z,55.30
2018-09-29T07:30:47.410Z,53.60
2018-09-29T07:33:16.014Z,54.40
2018-09-29T07:35:44.592Z,55.00
2018-09-29T07:38:13.188Z,54.30
2018-09-29T07:40:41.789Z,54.80
2018-09-29T07:43:10.382Z,53.70
2018-09-29T07:45:39.202Z,50.30
2018-09-29T07:48:07.804Z,51.50
2018-09-29T07:50:36.382Z,51.10
2018-09-29T07:53:05.064Z,49.60
2018-09-29T07:55:33.654Z,48.70
2018-09-29T07:58:02.267Z,49.30
2018-09-29T08:00:30.836Z,47.10
2018-09-29T08:02:59.425Z,46.20
2018-09-29T08:05:27.998Z,44.80
2018-09-29T08:07:56.567Z,46.60
2018-09-29T08:10:25.269Z,45.10
2018-09-29T08:12:54.137Z,45.70
2018-09-29T08:15:22.796Z,43.60
2018-09-29T08:17:51.401Z,43.50
2018-09-29T08:20:20.010Z,45.40
2018-09-29T08:22:48.798Z,42.90
2018-09-29T08:25:17.385Z,42.20
2018-09-29T08:27:45.962Z,42.10
2018-09-29T08:30:14.561Z,41.80
2018-09-29T08:32:43.208Z,41.50
2018-09-29T08:35:11.920Z,40.10
2018-09-29T08:37:40.538Z,42.10
2018-09-29T08:40:09.358Z,40.00
2018-09-29T08:42:38.200Z,41.00
2018-09-29T08:45:07.002Z,39.30
2018-09-29T08:47:35.587Z,38.70
2018-09-29T08:50:04.361Z,38.70
2018-09-29T08:52:32.957Z,40.40
2018-09-29T08:55:01.907Z,38.90
2018-09-29T08:57:30.475Z,38.50
2018-09-29T08:59:59.101Z,35.20
2018-09-29T09:02:27.688Z,38.60
2018-09-29T09:04:56.318Z,35.30
2018-09-29T09:07:24.884Z,34.40
2018-09-29T09:09:53.521Z,35.80
2018-09-29T09:12:22.090Z,35.40
2018-09-29T09:14:51.157Z,35.40
2018-09-29T09:17:19.763Z,36.90
2018-09-29T09:19:48.360Z,35.30
2018-09-29T09:22:16.958Z,35.10
2018-09-29T09:24:45.585Z,32.90
2018-09-29T09:27:14.152Z,31.40
2018-09-29T09:29:42.789Z,33.60
2018-09-29T09:32:11.428Z,30.30
2018-09-29T09:34:40.199Z,32.50
2018-09-29T09:37:08.783Z,32.40
2018-09-29T09:39:37.408Z,33.30
2018-09-29T09:42:06.150Z,31.70
2018-09-29T09:44:34.765Z,32.00
2018-09-29T09:47:03.348Z,31.30
2018-09-29T09:49:32.001Z,31.80
2018-09-29T09:52:01.578Z,31.00
2018-09-29T09:54:30.338Z,31.20
2018-09-29T09:56:58.929Z,31.80
2018-09-29T09:59:27.504Z,32.80
2018-09-29T10:02:01.437Z,30.50
2018-09-29T10:04:29.997Z,30.80
2018-09-29T10:06:58.628Z,30.80
2018-09-29T10:09:27.197Z,30.80
2018-09-29T10:11:55.786Z,30.60
2018-09-29T10:14:24.354Z,29.70
2018-09-29T10:16:52.949Z,30.70
2018-09-29T10:19:21.525Z,29.60
2018-09-29T10:21:50.129Z,30.70
2018-09-29T10:24:18.754Z,30.40
2018-09-29T10:26:47.387Z,29.70
2018-09-29T10:29:15.953Z,30.00
2018-09-29T10:31:44.550Z,28.80
2018-09-29T10:34:13.418Z,30.00
2018-09-29T10:36:42.050Z,29.90
2018-09-29T10:39:12.140Z,29.90
2018-09-29T10:41:41.369Z,31.00
2018-09-29T10:44:11.179Z,30.00
2018-09-29T10:46:39.791Z,29.40
2018-09-29T10:49:08.380Z,30.60
2018-09-29T10:51:37.013Z,30.00
2018-09-29T10:54:05.595Z,30.10
2018-09-29T10:56:34.184Z,30.00
2018-09-29T10:59:03.360Z,29.70
2018-09-29T11:01:32.039Z,29.90
2018-09-29T11:04:00.629Z,30.70
2018-09-29T11:06:29.225Z,31.80
2018-09-29T11:08:57.788Z,30.80
2018-09-29T11:11:26.494Z,30.20
2018-09-29T11:13:55.078Z,30.80
2018-09-29T11:16:23.681Z,31.60
2018-09-29T11:18:52.258Z,31.00
2018-09-29T11:21:20.869Z,30.90
2018-09-29T11:23:49.756Z,32.30
2018-09-29T11:26:18.345Z,32.20
2018-09-29T11:28:46.915Z,32.20
2018-09-29T11:31:15.513Z,33.20
2018-09-29T11:33:44.091Z,32.60
2018-09-29T11:36:12.685Z,33.60
2018-09-29T11:38:41.287Z,34.30
2018-09-29T11:41:09.868Z,33.80
2018-09-29T11:43:38.463Z,34.10
2018-09-29T11:46:07.269Z,35.90
2018-09-29T11:48:35.865Z,34.80
2018-09-29T11:51:04.815Z,35.50
2018-09-29T11:53:33.405Z,35.40
2018-09-29T11:56:02.247Z,35.50
2018-09-29T11:58:30.827Z,35.70
2018-09-29T12:00:59.435Z,35.50
2018-09-29T12:03:28.023Z,35.70
2018-09-29T12:05:56.754Z,36.30
2018-09-29T12:08:25.337Z,36.40
2018-09-29T12:10:53.921Z,37.00
2018-09-29T12:13:22.709Z,37.00
2018-09-29T12:15:51.273Z,37.00
2018-09-29T12:18:19.865Z,36.10
2018-09-29T12:20:48.456Z,36.70
2018-09-29T12:23:17.060Z,36.40
2018-09-29T12:25:45.659Z,36.30
2018-09-29T12:28:14.253Z,38.20
2018-09-29T12:30:42.869Z,36.70
2018-09-29T12:33:11.466Z,36.40
2018-09-29T12:35:40.029Z,36.40
2018-09-29T12:38:08.912Z,36.40
2018-09-29T12:40:37.509Z,36.70
2018-09-29T12:43:06.186Z,36.00
2018-09-29T12:45:34.764Z,36.40
2018-09-29T12:48:03.668Z,36.10
2018-09-29T12:50:32.258Z,36.20
2018-09-29T12:53:00.856Z,35.80
2018-09-29T12:55:29.443Z,35.90
2018-09-29T12:57:58.049Z,36.80
2018-09-29T13:00:26.722Z,37.20
2018-09-29T13:02:55.321Z,37.30
2018-09-29T13:05:23.952Z,37.30
2018-09-29T13:07:52.553Z,37.60
2018-09-29T13:10:21.133Z,37.80
2018-09-29T13:12:49.714Z,37.40
2018-09-29T13:15:18.333Z,36.90
2018-09-29T13:17:47.002Z,38.50
2018-09-29T13:20:15.919Z,37.50
2018-09-29T13:22:44.549Z,38.10
2018-09-29T13:25:13.112Z,38.20
2018-09-29T13:27:41.674Z,38.10
2018-09-29T13:30:10.309Z,38.00
2018-09-29T13:32:38.906Z,38.20
2018-09-29T13:35:07.752Z,38.50
2018-09-29T13:37:36.339Z,39.00
2018-09-29T13:40:05.014Z,38.80
2018-09-29T13:42:33.721Z,38.90
2018-09-29T13:45:02.347Z,39.80
2018-09-29T13:47:30.916Z,40.00
2018-09-29T13:49:59.670Z,39.80
2018-09-29T13:52:28.236Z,39.80
2018-09-29T13:54:56.832Z,39.40
2018-09-29T13:57:25.404Z,39.70
2018-09-29T13:59:54.317Z,40.30
2018-09-29T14:02:22.965Z,39.60
2018-09-29T14:04:51.637Z,40.20
2018-09-29T14:07:20.236Z,40.60
2018-09-29T14:09:48.833Z,40.20
2018-09-29T14:12:17.746Z,40.50
2018-09-29T14:14:46.345Z,40.40
2018-09-29T14:17:15.032Z,40.10
2018-09-29T14:19:43.677Z,41.10
2018-09-29T14:22:12.225Z,40.30
2018-09-29T14:24:40.807Z,40.30
2018-09-29T14:27:09.392Z,40.50
2018-09-29T14:29:38.005Z,40.20
2018-09-29T14:32:08.722Z,41.50
2018-09-29T14:34:37.337Z,40.20
2018-09-29T14:37:05.990Z,40.10
2018-09-29T14:39:34.662Z,40.20
2018-09-29T14:42:03.447Z,40.20
2018-09-29T14:44:31.944Z,40.70
2018-09-29T14:47:00.528Z,41.10
2018-09-29T14:49:29.160Z,40.60
2018-09-29T14:51:57.819Z,40.10
2018-09-29T14:54:26.404Z,40.40
2018-09-29T14:56:55.010Z,40.80
2018-09-29T14:59:23.593Z,40.60
2018-09-29T15:01:52.273Z,40.20
2018-09-29T15:04:20.866Z,40.50
2018-09-29T15:06:49.493Z,40.90
2018-09-29T15:09:18.076Z,40.40
2018-09-29T15:11:46.664Z,40.00
2018-09-29T15:14:15.297Z,39.90
2018-09-29T15:16:43.985Z,39.80
2018-09-29T15:19:12.575Z,40.70
2018-09-29T15:21:41.203Z,40.10
2018-09-29T15:24:09.778Z,40.10
2018-09-29T15:26:38.401Z,40.10
2018-09-29T15:29:08.128Z,40.20
2018-09-29T15:31:43.503Z,40.50
2018-09-29T15:34:12.106Z,40.40
2018-09-29T15:36:43.403Z,40.70
2018-09-29T15:39:12.904Z,40.40
2018-09-29T15:41:42.096Z,40.50
2018-09-29T15:44:11.210Z,41.00
2018-09-29T15:46:40.086Z,40.40
2018-09-29T15:49:08.673Z,40.80
2018-09-29T15:51:37.289Z,41.60
2018-09-29T15:54:05.942Z,40.10
2018-09-29T15:56:34.579Z,40.40
2018-09-29T15:59:03.178Z,39.90
2018-09-29T16:01:31.784Z,39.90
2018-09-29T16:04:00.360Z,40.20
2018-09-29T16:06:28.951Z,41.30
2018-09-29T16:08:59.225Z,40.70
2018-09-29T16:11:27.897Z,41.20
2018-09-29T16:13:56.561Z,41.60
2018-09-29T16:16:25.177Z,40.70
2018-09-29T16:18:53.774Z,41.20
2018-09-29T16:21:22.383Z,41.20
2018-09-29T16:23:50.962Z,40.80
2018-09-29T16:26:19.542Z,40.80
2018-09-29T16:28:48.216Z,41.40
2018-09-29T16:31:17.170Z,40.80
2018-09-29T16:33:45.757Z,41.30
2018-09-29T16:36:14.350Z,41.60
2018-09-29T16:38:42.965Z,42.00
2018-09-29T16:41:11.578Z,42.10
2018-09-29T16:43:40.208Z,41.00
2018-09-29T16:46:08.809Z,42.10
2018-09-29T16:48:37.408Z,42.30
2018-09-29T16:51:05.985Z,41.60
2018-09-29T16:53:34.581Z,42.30
2018-09-29T16:56:03.273Z,41.80
2018-09-29T16:58:32.587Z,41.80
2018-09-29T17:01:01.236Z,43.60
2018-09-29T17:03:30.642Z,44.90
2018-09-29T17:05:59.413Z,47.00
2018-09-29T17:08:28.028Z,43.90
2018-09-29T17:10:56.645Z,46.90
2018-09-29T17:13:25.251Z,48.40
2018-09-29T17:15:53.955Z,47.80
2018-09-29T17:18:22.530Z,48.10
2018-09-29T17:20:51.185Z,48.40
2018-09-29T17:23:19.789Z,47.80
2018-09-29T17:25:49.319Z,49.90
2018-09-29T17:28:17.924Z,49.50
2018-09-29T17:30:46.509Z,50.50
2018-09-29T17:33:15.121Z,52.20
2018-09-29T17:35:43.695Z,52.20
2018-09-29T17:38:12.293Z,54.00
2018-09-29T17:40:40.929Z,53.30
2018-09-29T17:43:09.557Z,52.90
2018-09-29T17:45:38.152Z,53.10
2018-09-29T17:48:07.211Z,54.60
2018-09-29T17:50:35.789Z,55.70
2018-09-29T17:53:04.390Z,54.00
2018-09-29T17:55:32.995Z,56.00
2018-09-29T17:58:01.606Z,57.20
2018-09-29T18:00:30.279Z,57.00
2018-09-29T18:02:59.579Z,57.90
2018-09-29T18:05:28.384Z,56.40
2018-09-29T18:07:57.038Z,58.10
2018-09-29T18:10:25.654Z,56.60
2018-09-29T18:12:54.228Z,58.50
2018-09-29T18:15:22.836Z,59.00
2018-09-29T18:17:51.413Z,56.40
2018-09-29T18:20:20.351Z,56.40
2018-09-29T18:22:48.924Z,59.50
2018-09-29T18:25:17.521Z,58.60
2018-09-29T18:27:46.132Z,59.90
2018-09-29T18:30:14.742Z,60.40
2018-09-29T18:32:43.325Z,61.70
2018-09-29T18:35:12.034Z,63.10
2018-09-29T18:37:40.673Z,61.80
2018-09-29T18:40:11.860Z,62.80
2018-09-29T18:42:42.879Z,63.70
2018-09-29T18:45:11.568Z,64.50
2018-09-29T18:47:40.517Z,65.50
2018-09-29T18:50:09.360Z,63.50
2018-09-29T18:52:37.961Z,65.40
2018-09-29T18:55:06.653Z,65.30
2018-09-29T18:57:35.331Z,63.70
2018-09-29T19:00:04.255Z,65.60
2018-09-29T19:02:32.842Z,66.00
2018-09-29T19:05:01.464Z,65.30
2018-09-29T19:07:30.059Z,63.70
2018-09-29T19:09:58.697Z,64.90
2018-09-29T19:12:27.337Z,67.20
2018-09-29T19:14:55.945Z,67.80
2018-09-29T19:17:24.539Z,70.80
2018-09-29T19:19:53.126Z,68.50
2018-09-29T19:22:21.729Z,67.70
2018-09-29T19:24:50.393Z,66.40
2018-09-29T19:27:18.972Z,68.10
2018-09-29T19:29:47.571Z,66.60
2018-09-29T19:32:16.158Z,67.10
2018-09-29T19:34:44.797Z,65.70
2018-09-29T19:37:13.398Z,66.60
2018-09-29T19:39:42.101Z,66.80
2018-09-29T19:42:10.721Z,68.70
2018-09-29T19:44:39.329Z,68.30
2018-09-29T19:47:07.924Z,69.00
2018-09-29T19:49:36.612Z,68.20
2018-09-29T19:52:05.197Z,68.20
2018-09-29T19:54:33.828Z,66.80
2018-09-29T19:57:02.416Z,70.40
2018-09-29T19:59:31.021Z,69.50
2018-09-29T20:02:00.072Z,70.30
2018-09-29T20:04:28.699Z,70.70
2018-09-29T20:06:57.293Z,69.90
2018-09-29T20:09:26.600Z,71.10
2018-09-29T20:11:55.221Z,71.20
2018-09-29T20:14:23.791Z,69.20
2018-09-29T20:16:52.384Z,70.80
2018-09-29T20:19:20.955Z,72.10
2018-09-29T20:21:49.558Z,69.10
2018-09-29T20:24:18.208Z,74.50
2018-09-29T20:26:46.809Z,74.60
2018-09-29T20:29:15.389Z,72.40
2018-09-29T20:31:44.005Z,74.50
2018-09-29T20:34:12.621Z,75.30
2018-09-29T20:36:41.230Z,74.00
2018-09-29T20:39:12.243Z,73.60
2018-09-29T20:41:41.297Z,75.30
2018-09-29T20:44:10.384Z,74.00
2018-09-29T20:46:38.996Z,76.50
2018-09-29T20:49:08.240Z,73.60
2018-09-29T20:51:37.177Z,74.10
2018-09-29T20:54:05.860Z,77.10
2018-09-29T20:56:34.517Z,78.00
2018-09-29T20:59:03.209Z,78.60
2018-09-29T21:01:31.912Z,78.70
2018-09-29T21:04:00.437Z,80.30
2018-09-29T21:06:29.021Z,78.70
2018-09-29T21:08:57.628Z,77.70
2018-09-29T21:11:26.301Z,78.50
2018-09-29T21:13:54.874Z,78.80
2018-09-29T21:16:23.482Z,78.10
2018-09-29T21:18:52.053Z,78.70
2018-09-29T21:21:20.657Z,77.50
2018-09-29T21:23:49.227Z,79.70
2018-09-29T21:26:17.816Z,79.30
2018-09-29T21:28:46.476Z,81.00
2018-09-29T21:31:15.556Z,80.90
2018-09-29T21:33:44.119Z,82.50
2018-09-29T21:36:12.709Z,81.90
2018-09-29T21:38:41.341Z,82.30
2018-09-29T21:41:09.976Z,83.50
2018-09-29T21:43:38.539Z,84.10
2018-09-29T21:46:07.261Z,83.10
2018-09-29T21:48:35.852Z,82.80
2018-09-29T21:51:04.523Z,86.10
2018-09-29T21:53:33.448Z,82.60
2018-09-29T21:56:02.033Z,82.00
2018-09-29T21:58:30.629Z,82.00
2018-09-29T22:01:04.569Z,80.90
2018-09-29T22:03:33.164Z,81.60
2018-09-29T22:06:01.729Z,80.70
2018-09-29T22:08:30.330Z,81.50
2018-09-29T22:10:59.573Z,82.10
2018-09-29T22:13:28.169Z,82.70
2018-09-29T22:15:56.748Z,84.50
2018-09-29T22:18:25.345Z,83.60
2018-09-29T22:20:54.937Z,82.90
2018-09-29T22:23:23.602Z,83.20
2018-09-29T22:25:52.168Z,83.40
2018-09-29T22:28:21.024Z,82.60
2018-09-29T22:30:49.617Z,81.80
2018-09-29T22:33:18.196Z,81.80
2018-09-29T22:35:46.937Z,80.70
2018-09-29T22:38:15.538Z,83.60
2018-09-29T22:40:44.144Z,83.70
2018-09-29T22:43:12.738Z,85.00
2018-09-29T22:45:41.816Z,86.00
2018-09-29T22:48:10.401Z,86.90
2018-09-29T22:50:39.373Z,85.50
2018-09-29T22:53:08.041Z,82.90
2018-09-29T22:55:36.629Z,82.90
2018-09-29T22:58:05.311Z,85.20
2018-09-29T23:00:33.909Z,84.60
2018-09-29T23:03:02.532Z,86.40
2018-09-29T23:05:31.108Z,85.20
2018-09-29T23:07:59.758Z,89.00
2018-09-29T23:10:28.337Z,85.30
2018-09-29T23:12:56.944Z,88.10
2018-09-29T23:15:25.532Z,86.80
2018-09-29T23:17:54.133Z,88.10
2018-09-29T23:20:23.021Z,85.10
2018-09-29T23:22:51.610Z,87.90
2018-09-29T23:25:20.179Z,89.00
2018-09-29T23:27:48.778Z,88.20
2018-09-29T23:30:17.709Z,86.80
2018-09-29T23:32:46.309Z,86.10
2018-09-29T23:35:14.880Z,87.50
2018-09-29T23:37:43.477Z,87.60
2018-09-29T23:40:12.440Z,89.30
2018-09-29T23:42:41.059Z,86.60
2018-09-29T23:45:09.628Z,87.40
2018-09-29T23:47:38.196Z,88.20
2018-09-29T23:50:06.982Z,87.20
2018-09-29T23:52:35.561Z,85.80
2018-09-29T23:55:04.396Z,87.50
2018-09-29T23:57:32.959Z,89.20
